Time;durP1;ratioP1;P1;durP2;ratioP2;P2;SDS_P1;SDS_P2;PMS_P1;PMS_P2;Temp;Humidity;BMP_temperature;BMP_pressure;BME280_temperature;BME280_humidity;BME280_pressure;Samples;Min_cycle;Max_cycle;Signal;HPM_P1;HPM_P2
2022/06/21 00:01:03;;;;;;;3.35;2.88;;;;;;;11.92;74.66;100971.16;4998118;27;20023;-67
2022/06/21 00:03:29;;;;;;;4.68;2.90;;;;;;;11.84;75.33;100957.78;5033421;27;20029;-67
2022/06/21 00:05:54;;;;;;;4.78;2.90;;;;;;;11.74;75.97;100964.91;5012570;27;20009;-67
2022/06/21 00:08:21;;;;;;;4.63;3.00;;;;;;;11.72;75.74;100959.72;4995593;27;20650;-67
2022/06/21 00:10:47;;;;;;;8.13;3.25;;;;;;;11.66;76.09;100971.72;4994636;27;20233;-67
2022/06/21 00:13:17;;;;;;;3.88;2.90;;;;;;;11.65;75.90;100975.34;5013879;27;20096;-67
2022/06/21 00:15:43;;;;;;;3.72;3.08;;;;;;;11.60;76.57;100966.97;4995275;27;20013;-68
2022/06/21 00:18:12;;;;;;;6.90;3.28;;;;;;;11.55;76.76;100974.50;5016401;27;20024;-67
2022/06/21 00:20:37;;;;;;;3.00;2.80;;;;;;;11.77;76.21;100970.75;5001368;27;20024;-68
2022/06/21 00:23:03;;;;;;;3.92;3.05;;;;;;;11.76;75.72;100962.94;5050829;27;20029;-67
2022/06/21 00:25:28;;;;;;;3.40;2.90;;;;;;;11.72;75.65;100966.84;5034978;27;20013;-67
2022/06/21 00:27:54;;;;;;;2.97;2.78;;;;;;;11.65;75.61;100972.69;5032631;27;20413;-67
2022/06/21 00:30:20;;;;;;;4.95;2.90;;;;;;;11.65;76.15;100975.34;5011089;27;21041;-67
2022/06/21 00:32:46;;;;;;;2.92;2.72;;;;;;;11.85;75.38;100964.75;5012674;27;20044;-69
2022/06/21 00:35:16;;;;;;;4.63;2.78;;;;;;;11.91;74.44;100968.66;4994922;27;20035;-67
2022/06/21 00:37:41;;;;;;;2.90;2.70;;;;;;;11.71;75.05;100979.25;4994498;27;20021;-67
2022/06/21 00:40:22;;;;;;;4.85;2.83;;;;;;;11.85;74.99;100980.66;4997278;27;20058;-66
2022/06/21 00:42:53;;;;;;;3.20;2.90;;;;;;;11.63;75.55;100981.75;4994824;27;20201;-68
2022/06/21 00:45:24;;;;;;;3.33;2.88;;;;;;;11.53;75.64;100981.75;4994170;27;20252;-68
2022/06/21 00:47:55;;;;;;;3.25;2.92;;;;;;;11.46;76.04;100967.38;5030387;27;20463;-68
2022/06/21 00:51:13;;;;;;;5.05;2.75;;;;;;;11.34;76.06;100959.53;5012915;27;20417;-69
2022/06/21 00:53:50;;;;;;;3.95;2.85;;;;;;;11.21;76.64;100964.25;5026908;27;20552;-67
2022/06/21 00:56:20;;;;;;;4.32;2.70;;;;;;;11.16;76.63;100955.88;4999627;27;20755;-66
2022/06/21 00:58:45;;;;;;;2.80;2.50;;;;;;;11.04;77.47;100964.91;4995997;27;20029;-67
2022/06/21 01:01:22;;;;;;;3.22;2.70;;;;;;;11.33;76.20;100959.69;5011050;27;20167;-68
2022/06/21 01:03:54;;;;;;;3.25;2.35;;;;;;;11.51;75.93;100962.50;4994780;27;20434;-66
2022/06/21 01:06:26;;;;;;;3.05;2.53;;;;;;;11.45;75.45;100963.03;5028552;27;20745;-68
2022/06/21 01:08:59;;;;;;;3.10;2.90;;;;;;;11.36;75.43;100947.97;5015939;27;20052;-67
2022/06/21 01:11:28;;;;;;;3.78;2.50;;;;;;;11.49;74.97;100933.50;5011173;27;20507;-67
2022/06/21 01:13:53;;;;;;;2.70;2.60;;;;;;;11.57;74.84;100930.13;5031920;27;20025;-66
2022/06/21 01:16:19;;;;;;;4.70;2.70;;;;;;;11.48;74.82;100920.38;5037963;27;20447;-67
2022/06/21 01:18:45;;;;;;;5.18;2.80;;;;;;;11.27;75.61;100913.38;5027022;27;20043;-68
2022/06/21 01:21:11;;;;;;;3.78;2.83;;;;;;;11.42;75.55;100918.28;4989720;27;20020;-69
2022/06/21 01:24:16;;;;;;;5.95;2.65;;;;;;;11.47;75.98;100927.47;5034601;27;20035;-66
2022/06/21 01:26:45;;;;;;;4.57;2.95;;;;;;;11.46;76.09;100927.63;5002137;27;20848;-68
2022/06/21 01:29:13;;;;;;;4.82;3.00;;;;;;;11.37;76.72;100923.16;5014772;27;20020;-68
2022/06/21 01:31:38;;;;;;;3.17;2.88;;;;;;;11.18;77.49;100927.44;5034106;27;20311;-68
2022/06/21 01:34:09;;;;;;;3.42;3.00;;;;;;;11.23;77.29;100930.53;5030679;27;21070;-68
2022/06/21 01:36:35;;;;;;;2.90;2.70;;;;;;;11.14;77.44;100926.06;5013702;27;20496;-68
2022/06/21 01:39:09;;;;;;;3.83;2.80;;;;;;;11.14;77.36;100929.53;4996984;27;20889;-69
2022/06/21 01:41:52;;;;;;;2.80;2.60;;;;;;;11.12;78.04;100935.94;5052155;27;20135;-66
2022/06/21 01:44:33;;;;;;;2.78;2.67;;;;;;;11.17;77.34;100942.50;4997823;27;20076;-68
2022/06/21 01:47:00;;;;;;;3.40;3.00;;;;;;;11.15;77.99;100946.25;5015214;27;20792;-67
2022/06/21 01:49:26;;;;;;;2.70;2.60;;;;;;;11.10;77.83;100943.19;4997026;27;20013;-67
2022/06/21 01:52:13;;;;;;;3.20;2.90;;;;;;;11.05;78.14;100932.16;5013636;27;20085;-66
2022/06/21 01:54:40;;;;;;;2.90;2.70;;;;;;;10.96;78.20;100926.69;5036448;27;20416;-67
2022/06/21 01:57:08;;;;;;;4.18;2.65;;;;;;;10.95;77.62;100922.34;4996570;27;20202;-68
2022/06/21 01:59:37;;;;;;;3.20;3.00;;;;;;;10.74;78.30;100921.59;5015185;27;20016;-66
2022/06/21 02:02:06;;;;;;;3.05;2.60;;;;;;;10.70;78.45;100918.38;5013596;27;20028;-68
2022/06/21 02:04:34;;;;;;;3.97;3.05;;;;;;;10.73;78.34;100925.22;5013819;27;20445;-67
2022/06/21 02:07:02;;;;;;;6.18;2.78;;;;;;;10.71;78.23;100914.75;5014052;27;20108;-66
2022/06/21 02:09:32;;;;;;;3.60;2.70;;;;;;;10.59;78.68;100913.16;4996743;27;20492;-67
2022/06/21 02:12:06;;;;;;;3.45;3.15;;;;;;;10.56;78.75;100913.44;5009847;27;20515;-67
2022/06/21 02:14:36;;;;;;;;;;;;;;;10.77;77.70;100908.09;5028106;27;20028;-67
2022/06/21 02:17:11;;;;;;;2.80;2.70;;;;;;;10.77;77.37;100908.09;5026905;27;20431;-66
2022/06/21 02:19:42;;;;;;;2.90;2.65;;;;;;;10.61;78.27;100916.53;5007697;27;20029;-65
2022/06/21 02:22:33;;;;;;;2.80;2.70;;;;;;;10.41;78.25;100910.31;5010822;27;20120;-67
2022/06/21 02:24:59;;;;;;;3.08;2.88;;;;;;;10.42;78.56;100906.69;5027217;27;20128;-66
2022/06/21 02:27:28;;;;;;;2.95;2.75;;;;;;;10.42;78.40;100917.25;5012812;28;20366;-67
2022/06/21 02:29:55;;;;;;;4.25;3.03;;;;;;;10.44;79.16;100916.16;5008196;28;20036;-66
2022/06/21 02:32:30;;;;;;;3.15;2.90;;;;;;;10.40;79.33;100927.97;5011201;28;20811;-67
2022/06/21 02:34:59;;;;;;;2.72;2.63;;;;;;;10.44;78.61;100936.50;5011635;28;20093;-66
2022/06/21 02:37:25;;;;;;;5.80;2.83;;;;;;;10.37;79.36;100940.66;5013944;28;20016;-68
2022/06/21 02:39:50;;;;;;;3.40;3.10;;;;;;;10.32;80.07;100933.91;5028172;28;20021;-67
2022/06/21 02:42:24;;;;;;;4.40;3.10;;;;;;;10.31;79.90;100929.56;5013338;28;20807;-65
2022/06/21 02:44:54;;;;;;;;;;;;;;;10.23;80.61;100933.84;5027314;28;20053;-67
2022/06/21 02:47:26;;;;;;;3.47;3.17;;;;;;;10.45;79.84;100930.25;5010880;28;20009;-67
2022/06/21 02:49:58;;;;;;;3.13;2.92;;;;;;;10.72;78.53;100931.50;5027043;27;20013;-66
2022/06/21 02:52:38;;;;;;;3.90;2.95;;;;;;;10.52;78.55;100918.19;5005563;28;20045;-67
2022/06/21 02:55:25;;;;;;;3.20;2.90;;;;;;;10.51;78.26;100908.56;4974628;28;20224;-69
2022/06/21 02:58:01;;;;;;;4.25;2.75;;;;;;;10.29;79.06;100899.78;5010019;28;20082;-65
2022/06/21 03:00:27;;;;;;;3.08;2.88;;;;;;;10.46;78.08;100905.44;4990402;28;20089;-67
2022/06/21 03:02:52;;;;;;;2.90;2.70;;;;;;;10.56;77.22;100903.72;5012254;28;20021;-65
2022/06/21 03:05:21;;;;;;;3.45;2.90;;;;;;;10.48;77.73;100906.19;5028714;27;20923;-66
2022/06/21 03:07:53;;;;;;;5.20;3.10;;;;;;;10.37;77.69;100893.88;5028231;28;20017;-66
2022/06/21 03:10:30;;;;;;;3.00;2.80;;;;;;;10.25;78.74;100902.81;5013662;27;20756;-66
2022/06/21 03:13:00;;;;;;;3.38;3.08;;;;;;;10.23;79.15;100908.22;5015201;27;20074;-69
2022/06/21 03:15:26;;;;;;;3.20;3.00;;;;;;;10.39;78.03;100893.72;5013798;27;20825;-69
2022/06/21 03:17:53;;;;;;;3.13;2.55;;;;;;;10.44;77.86;100896.81;5030164;27;20077;-68
2022/06/21 03:20:19;;;;;;;3.15;2.83;;;;;;;10.36;77.84;100891.34;5013163;27;20125;-68
2022/06/21 03:22:44;;;;;;;3.63;3.22;;;;;;;10.25;77.82;100879.88;5030493;27;20013;-67
2022/06/21 03:25:34;;;;;;;6.18;2.80;;;;;;;10.26;78.57;100873.59;5029750;27;20012;-68
2022/06/21 03:28:00;;;;;;;6.97;2.80;;;;;;;10.25;78.30;100881.66;5014487;27;20565;-67
2022/06/21 03:30:28;;;;;;;3.85;2.63;;;;;;;10.07;79.12;100876.97;4992921;27;20918;-67
2022/06/21 03:32:54;;;;;;;3.22;2.92;;;;;;;10.02;79.24;100867.75;4994173;28;20144;-67
2022/06/21 03:35:20;;;;;;;3.00;2.80;;;;;;;10.07;79.39;100865.56;4981249;27;20013;-67
2022/06/21 03:37:45;;;;;;;4.25;3.08;;;;;;;10.17;79.20;100863.81;5014726;27;20025;-67
2022/06/21 03:43:08;;;;;;;3.00;2.80;;;;;;;10.10;79.41;100876.72;5003088;27;20146;-66
2022/06/21 03:45:34;;;;;;;3.45;2.78;;;;;;;10.12;79.28;100890.66;5013345;27;20373;-67
2022/06/21 03:48:21;;;;;;;3.28;2.92;;;;;;;10.27;79.06;100903.53;4999566;27;20956;-68
2022/06/21 03:50:53;;;;;;;6.05;2.90;;;;;;;10.37;78.50;100900.97;5014661;27;20116;-67
2022/06/21 03:53:18;;;;;;;8.57;3.03;;;;;;;10.35;78.96;100902.91;5015089;27;20954;-68
2022/06/21 03:55:51;;;;;;;4.15;3.10;;;;;;;10.35;79.75;100910.81;5052104;27;20008;-67
2022/06/21 03:58:28;;;;;;;3.25;2.95;;;;;;;10.47;78.85;100910.59;5017497;27;20017;-66
2022/06/21 04:01:08;;;;;;;3.90;3.08;;;;;;;10.49;78.90;100921.06;5034265;27;20019;-67
2022/06/21 04:03:36;;;;;;;5.75;3.10;;;;;;;10.43;79.14;100922.41;5037177;27;20009;-67
2022/06/21 04:06:12;;;;;;;4.65;3.00;;;;;;;10.26;80.21;100930.94;5036340;27;20061;-68
2022/06/21 04:08:52;;;;;;;3.20;3.00;;;;;;;10.23;81.05;100936.50;5015933;27;20027;-69
2022/06/21 04:11:23;;;;;;;3.30;3.10;;;;;;;10.20;80.96;100937.59;5030914;27;20792;-68
2022/06/21 04:14:01;;;;;;;3.35;3.05;;;;;;;10.30;80.41;100935.84;5016158;27;20458;-68
2022/06/21 04:16:30;;;;;;;3.25;3.05;;;;;;;10.35;80.36;100932.00;5015623;27;20727;-68
2022/06/21 04:19:01;;;;;;;3.58;3.38;;;;;;;10.46;80.55;100926.63;5033826;27;20885;-67
2022/06/21 04:21:42;;;;;;;4.05;3.55;;;;;;;10.36;80.42;100933.69;5024746;27;20013;-67
2022/06/21 04:24:29;;;;;;;3.03;2.83;;;;;;;10.36;80.32;100934.50;4994425;27;20025;-67
2022/06/21 04:27:10;;;;;;;3.60;3.22;;;;;;;10.50;80.27;100946.56;5016640;27;20025;-68
2022/06/21 04:29:55;;;;;;;3.13;2.90;;;;;;;10.51;79.69;100950.88;5011051;28;20083;-69
2022/06/21 04:32:32;;;;;;;3.17;2.97;;;;;;;10.61;79.38;100941.19;4993136;28;20033;-69
2022/06/21 04:35:10;;;;;;;3.50;3.20;;;;;;;10.69;78.95;100943.19;4994720;28;21005;-68
2022/06/21 04:38:01;;;;;;;5.63;3.05;;;;;;;10.61;79.31;100941.19;4992550;28;20028;-69
2022/06/21 04:40:33;;;;;;;3.25;2.97;;;;;;;10.58;79.18;100936.16;5012981;27;20709;-68
2022/06/21 04:43:14;;;;;;;3.42;2.85;;;;;;;10.56;79.72;100932.81;4992913;28;20024;-67
2022/06/21 04:45:49;;;;;;;3.40;3.10;;;;;;;10.60;80.01;100938.66;4995178;28;20796;-67
2022/06/21 04:48:40;;;;;;;3.38;3.08;;;;;;;10.73;79.51;100930.50;5014503;27;20016;-68
2022/06/21 04:51:16;;;;;;;2.92;2.83;;;;;;;10.97;79.15;100915.13;5023639;27;20020;-68
2022/06/21 04:53:52;;;;;;;5.63;3.20;;;;;;;10.95;79.23;100914.41;5015681;27;20556;-68
2022/06/21 04:56:26;;;;;;;4.18;3.33;;;;;;;11.26;78.80;100910.88;5030421;27;20621;-67
2022/06/21 04:58:52;;;;;;;3.70;2.95;;;;;;;11.24;78.69;100907.50;5030632;27;20892;-69
2022/06/21 05:01:30;;;;;;;3.45;2.90;;;;;;;11.45;78.32;100899.44;5012226;27;20029;-68
2022/06/21 05:04:17;;;;;;;3.80;2.90;;;;;;;11.54;77.89;100903.91;5014148;27;20423;-68
2022/06/21 05:06:43;;;;;;;3.03;2.75;;;;;;;11.56;78.40;100912.56;5011642;27;20423;-68
2022/06/21 05:09:14;;;;;;;3.13;2.90;;;;;;;11.71;77.94;100909.50;5012864;27;20015;-68
2022/06/21 05:11:39;;;;;;;4.07;3.00;;;;;;;11.73;77.95;100902.25;5009384;28;20021;-67
2022/06/21 05:14:04;;;;;;;2.83;2.72;;;;;;;11.82;78.10;100898.75;4994338;28;20252;-68
2022/06/21 05:16:37;;;;;;;3.25;3.05;;;;;;;11.91;77.85;100903.19;5008737;27;20565;-68
2022/06/21 05:19:22;;;;;;;3.10;3.00;;;;;;;12.04;77.04;100900.28;5010245;27;20048;-68
2022/06/21 05:21:56;;;;;;;3.92;3.60;;;;;;;12.24;76.70;100895.78;5030485;27;20020;-68
2022/06/21 05:24:22;;;;;;;4.45;3.22;;;;;;;12.33;76.29;100888.75;5000802;28;20001;-70
2022/06/21 05:27:05;;;;;;;3.67;3.38;;;;;;;12.45;75.41;100884.09;4996484;28;20465;-68
2022/06/21 05:29:39;;;;;;;3.55;2.92;;;;;;;12.68;75.97;100892.53;5000350;27;20289;-69
2022/06/21 05:32:05;;;;;;;3.35;2.92;;;;;;;12.73;74.33;100898.22;5008839;28;20115;-70
2022/06/21 05:34:33;;;;;;;4.65;3.30;;;;;;;12.84;73.23;100900.69;5009481;28;20021;-71
2022/06/21 05:37:20;;;;;;;3.35;3.05;;;;;;;12.97;72.90;100903.03;4993806;28;20314;-69
2022/06/21 05:39:47;;;;;;;3.20;2.92;;;;;;;13.04;72.33;100900.59;5011762;27;20009;-66
2022/06/21 05:42:13;;;;;;;6.07;3.28;;;;;;;13.15;71.22;100896.88;4993262;28;20039;-67
2022/06/21 05:44:41;;;;;;;3.20;3.00;;;;;;;13.22;71.38;100896.13;5009211;28;20556;-68
2022/06/21 05:47:15;;;;;;;4.78;3.20;;;;;;;13.37;70.61;100893.00;5009245;28;20534;-67
2022/06/21 05:49:40;;;;;;;4.78;2.97;;;;;;;13.34;70.61;100894.09;5027607;27;20424;-69
2022/06/21 05:52:10;;;;;;;3.97;2.97;;;;;;;13.40;70.41;100895.34;5024075;27;20833;-68
2022/06/21 05:54:38;;;;;;;3.75;2.70;;;;;;;13.61;70.33;100899.50;4993225;28;20972;-68
2022/06/21 05:57:05;;;;;;;2.78;2.65;;;;;;;13.70;70.48;100902.09;4994795;28;20009;-70
2022/06/21 05:59:30;;;;;;;3.88;2.90;;;;;;;13.81;71.12;100900.19;5009170;28;20074;-69
2022/06/21 06:02:01;;;;;;;3.83;2.80;;;;;;;13.89;69.08;100897.59;5008104;28;20006;-69
2022/06/21 06:04:34;;;;;;;7.05;2.95;;;;;;;14.00;68.54;100910.66;5011358;28;20824;-68
2022/06/21 06:07:00;;;;;;;;;;;;;;;14.16;68.13;100909.09;4992509;28;20002;-69
2022/06/21 06:09:34;;;;;;;4.00;2.93;;;;;;;14.18;67.52;100907.94;5009160;28;19911;-68
2022/06/21 06:12:02;;;;;;;3.65;2.90;;;;;;;14.20;67.40;100910.44;4992860;28;20858;-68
2022/06/21 06:14:49;;;;;;;3.03;2.75;;;;;;;14.30;67.23;100911.19;4995005;28;20069;-68
2022/06/21 06:17:20;;;;;;;2.85;2.65;;;;;;;14.41;67.54;100905.59;4995572;28;20020;-67
2022/06/21 06:19:49;;;;;;;2.85;2.65;;;;;;;14.48;67.36;100908.47;5023168;27;20732;-68
2022/06/21 06:22:20;;;;;;;2.67;2.33;;;;;;;14.50;67.00;100916.28;5005169;28;20082;-68
2022/06/21 06:24:50;;;;;;;3.55;2.50;;;;;;;14.71;66.84;100914.09;5009725;28;20021;-68
2022/06/21 06:27:45;;;;;;;2.85;2.50;;;;;;;14.71;66.64;100916.75;5009333;28;20018;-69
2022/06/21 06:30:13;;;;;;;4.45;2.30;;;;;;;14.80;66.01;100916.78;5011426;27;20025;-68
2022/06/21 06:32:40;;;;;;;2.60;2.38;;;;;;;14.90;65.92;100909.50;4992431;28;20128;-68
2022/06/21 06:35:13;;;;;;;3.38;2.25;;;;;;;15.05;66.45;100902.53;4993574;28;21033;-68
2022/06/21 06:37:41;;;;;;;3.38;2.45;;;;;;;15.15;65.60;100910.41;4993543;28;20059;-68
2022/06/21 06:40:13;;;;;;;3.35;2.58;;;;;;;15.28;65.58;100912.59;4993926;27;20408;-68
2022/06/21 06:42:38;;;;;;;2.58;2.38;;;;;;;15.42;64.78;100906.63;4977215;28;20028;-68
2022/06/21 06:45:14;;;;;;;3.30;2.40;;;;;;;15.59;65.59;100907.47;4994205;28;20472;-70
2022/06/21 06:47:50;;;;;;;2.50;2.30;;;;;;;15.67;65.16;100920.00;4995807;28;20446;-69
2022/06/21 06:50:27;;;;;;;6.07;2.55;;;;;;;15.68;64.42;100921.66;4993767;27;20021;-68
2022/06/21 06:52:58;;;;;;;5.10;2.35;;;;;;;15.80;63.80;100917.69;5014373;28;20852;-69
2022/06/21 06:55:34;;;;;;;3.95;2.58;;;;;;;15.76;62.96;100905.63;5011628;27;20796;-69
2022/06/21 06:58:02;;;;;;;4.03;2.70;;;;;;;15.87;62.88;100893.00;5014938;27;20374;-69
2022/06/21 07:00:39;;;;;;;4.70;2.47;;;;;;;15.98;64.10;100895.34;5013172;27;20012;-69
2022/06/21 07:03:12;;;;;;;2.80;2.25;;;;;;;16.10;63.86;100893.13;5012610;28;20036;-68
2022/06/21 07:05:46;;;;;;;3.43;2.20;;;;;;;16.19;63.77;100896.63;5029884;27;20119;-67
2022/06/21 07:08:20;;;;;;;2.60;2.40;;;;;;;16.30;62.60;100893.59;5013609;27;21005;-67
2022/06/21 07:10:46;;;;;;;2.90;2.35;;;;;;;16.41;61.56;100895.91;5011688;27;20032;-69
2022/06/21 07:13:12;;;;;;;3.88;2.65;;;;;;;16.61;61.05;100900.84;5008614;28;20068;-68
2022/06/21 07:15:41;;;;;;;2.45;2.20;;;;;;;16.67;60.98;100908.19;5011820;28;20036;-68
2022/06/21 07:18:14;;;;;;;4.07;2.00;;;;;;;16.61;59.17;100909.72;5016408;27;20017;-68
2022/06/21 07:20:41;;;;;;;4.47;2.08;;;;;;;16.80;59.51;100912.97;5010658;27;20044;-69
2022/06/21 07:23:14;;;;;;;2.58;1.90;;;;;;;16.85;58.15;100918.63;5010898;28;20043;-69
2022/06/21 07:25:51;;;;;;;2.15;1.95;;;;;;;17.05;58.12;100912.88;5016141;27;20017;-68
2022/06/21 07:28:28;;;;;;;4.78;2.47;;;;;;;17.16;57.35;100916.00;5013936;27;20032;-68
2022/06/21 07:30:54;;;;;;;3.97;2.00;;;;;;;17.27;56.57;100913.91;5031413;27;20033;-69
2022/06/21 07:33:30;;;;;;;2.08;1.80;;;;;;;17.45;55.31;100914.47;5033891;27;20033;-68
2022/06/21 07:36:19;;;;;;;1.88;1.60;;;;;;;17.42;56.38;100914.81;4994690;28;20017;-68
2022/06/21 07:39:00;;;;;;;3.33;1.88;;;;;;;17.65;58.15;100906.81;4995997;28;20001;-69
2022/06/21 07:41:37;;;;;;;3.35;2.20;;;;;;;17.78;57.69;100908.88;5012705;28;20052;-68
2022/06/21 07:44:08;;;;;;;1.92;1.83;;;;;;;17.67;52.27;100904.78;4997720;27;20056;-68
2022/06/21 07:46:46;;;;;;;2.45;1.92;;;;;;;17.70;51.19;100908.94;4978563;28;20024;-69
2022/06/21 07:49:25;;;;;;;1.85;1.75;;;;;;;18.01;51.70;100898.16;5003581;27;20013;-69
2022/06/21 07:51:54;;;;;;;3.55;1.90;;;;;;;18.12;50.40;100894.22;5011777;27;20053;-68
2022/06/21 07:54:23;;;;;;;2.45;2.15;;;;;;;18.21;50.32;100886.09;4997490;27;20815;-69
2022/06/21 07:57:06;;;;;;;4.88;1.90;;;;;;;18.43;50.50;100887.84;5033607;27;20534;-68
2022/06/21 07:59:32;;;;;;;2.15;1.77;;;;;;;18.41;52.29;100895.22;5016452;27;20013;-69
2022/06/21 08:07:33;;;;;;;;;;;;;;;18.15;51.61;100879.63;5034943;27;20150;-68
2022/06/21 08:10:02;;;;;;;2.70;2.13;;;;;;;18.16;50.46;100879.44;5033748;27;20472;-69
2022/06/21 08:12:28;;;;;;;2.47;1.95;;;;;;;18.25;50.56;100880.19;5035782;27;20044;-69
2022/06/21 08:14:53;;;;;;;2.72;2.10;;;;;;;18.39;50.85;100888.38;5037247;27;20432;-68
2022/06/21 08:17:30;;;;;;;3.33;2.10;;;;;;;18.53;50.70;100885.72;5020649;27;20564;-69
2022/06/21 08:20:12;;;;;;;2.45;2.20;;;;;;;18.80;49.91;100880.69;5036619;27;20120;-68
2022/06/21 08:22:47;;;;;;;3.15;2.30;;;;;;;18.91;50.46;100870.53;5016416;27;20016;-68
2022/06/21 08:25:18;;;;;;;2.75;2.10;;;;;;;19.16;50.13;100871.84;5037840;27;20734;-69
2022/06/21 08:27:52;;;;;;;6.82;2.20;;;;;;;19.20;48.96;100864.25;5035126;27;20113;-70
2022/06/21 08:30:31;;;;;;;1.77;1.67;;;;;;;19.32;48.91;100864.56;5018599;27;20841;-69
2022/06/21 08:33:00;;;;;;;2.47;2.20;;;;;;;19.44;51.61;100851.47;5035394;27;20074;-69
2022/06/21 08:35:34;;;;;;;2.25;1.83;;;;;;;19.60;49.87;100842.31;5017304;27;20021;-69
2022/06/21 08:38:11;;;;;;;2.15;1.95;;;;;;;19.80;47.73;100837.09;5036529;27;20652;-68
2022/06/21 08:40:43;;;;;;;3.50;1.80;;;;;;;19.74;50.25;100831.47;5002989;27;20474;-69
2022/06/21 08:43:17;;;;;;;2.75;1.77;;;;;;;19.81;50.69;100826.19;5036314;27;20016;-70
2022/06/21 08:46:00;;;;;;;1.90;1.80;;;;;;;20.09;49.41;100830.69;5034932;27;20413;-69
2022/06/21 08:49:02;;;;;;;2.88;1.73;;;;;;;20.27;47.84;100838.25;5047108;27;20032;-68
2022/06/21 08:52:10;;;;;;;2.83;1.48;;;;;;;19.93;44.40;100823.78;5015285;27;19997;-69
2022/06/21 08:54:57;;;;;;;2.00;1.50;;;;;;;20.20;47.33;100830.13;5027194;27;20073;-69
2022/06/21 08:57:38;;;;;;;1.40;1.30;;;;;;;20.05;44.18;100821.38;5036873;27;20518;-70
2022/06/21 09:00:37;;;;;;;1.45;1.40;;;;;;;20.27;44.74;100807.88;5016521;27;20012;-70
2022/06/21 09:03:21;;;;;;;1.65;1.52;;;;;;;20.12;45.06;100798.06;5033025;27;20028;-69
2022/06/21 09:05:47;;;;;;;2.03;1.60;;;;;;;19.93;47.73;100788.06;5012518;27;20331;-68
2022/06/21 09:08:48;;;;;;;3.42;1.70;;;;;;;19.74;47.98;100783.16;5035574;27;20017;-70
2022/06/21 09:11:28;;;;;;;2.38;1.30;;;;;;;19.88;48.33;100775.19;4998905;27;20036;-68
2022/06/21 09:14:31;;;;;;;5.25;1.50;;;;;;;19.97;48.77;100773.19;5014627;27;20580;-69
2022/06/21 09:17:32;;;;;;;1.50;1.40;;;;;;;20.14;48.47;100766.47;5032701;27;20005;-68
2022/06/21 09:20:11;;;;;;;3.92;1.50;;;;;;;20.65;47.32;100759.00;5036065;27;20705;-69
2022/06/21 09:23:06;;;;;;;1.48;1.25;;;;;;;21.12;47.30;100753.72;5028371;27;20746;-70
2022/06/21 09:26:11;;;;;;;2.55;1.45;;;;;;;21.37;45.17;100751.22;4998644;27;20043;-67
2022/06/21 09:28:41;;;;;;;2.55;1.30;;;;;;;21.95;42.81;100754.03;5026883;27;20016;-70
2022/06/21 09:31:59;;;;;;;2.47;1.38;;;;;;;22.12;43.15;100756.25;5015236;27;19993;-70
2022/06/21 09:34:53;;;;;;;2.55;1.75;;;;;;;21.89;45.30;100762.97;4989741;27;20376;-69
2022/06/21 09:37:37;;;;;;;1.63;1.40;;;;;;;21.48;42.12;100764.06;5051973;27;20012;-71
2022/06/21 09:40:22;;;;;;;2.42;1.83;;;;;;;21.41;41.71;100761.34;5033347;27;20019;-69
2022/06/21 09:43:16;;;;;;;1.42;1.35;;;;;;;21.78;43.91;100748.28;5019496;27;20029;-69
2022/06/21 09:46:00;;;;;;;1.63;1.27;;;;;;;22.68;42.52;100743.19;5015884;27;20199;-69
2022/06/21 09:48:53;;;;;;;1.98;1.30;;;;;;;23.20;41.82;100746.56;5018261;27;20123;-69
2022/06/21 09:51:48;;;;;;;2.22;1.65;;;;;;;23.48;41.81;100751.50;5052451;27;20417;-70
2022/06/21 09:54:36;;;;;;;1.45;1.35;;;;;;;23.99;39.69;100746.81;5019645;27;20031;-70
2022/06/21 09:57:18;;;;;;;1.63;1.38;;;;;;;23.73;38.58;100744.38;5033861;27;20009;-70
2022/06/21 10:00:16;;;;;;;1.25;1.25;;;;;;;23.17;40.61;100752.41;5000234;27;20017;-69
2022/06/21 10:03:01;;;;;;;1.30;1.17;;;;;;;23.28;41.24;100762.47;5015882;27;20001;-69
2022/06/21 10:05:54;;;;;;;1.95;1.40;;;;;;;23.05;39.10;100767.63;5012673;27;20770;-69
2022/06/21 10:08:28;;;;;;;2.65;1.48;;;;;;;22.76;39.64;100764.47;4996572;27;20033;-70
2022/06/21 10:11:27;;;;;;;1.40;1.40;;;;;;;22.56;42.44;100770.84;5030379;27;20328;-69
2022/06/21 10:14:17;;;;;;;4.55;1.67;;;;;;;22.49;42.27;100775.41;5017414;27;20277;-69
2022/06/21 10:16:58;;;;;;;1.52;1.40;;;;;;;22.56;42.19;100776.22;5013313;27;20016;-70
2022/06/21 10:19:57;;;;;;;1.63;1.52;;;;;;;22.46;41.54;100760.50;5026028;27;20024;-69
2022/06/21 10:22:53;;;;;;;2.53;1.50;;;;;;;22.64;42.41;100756.25;5035010;27;20746;-69
2022/06/21 10:25:39;;;;;;;1.80;1.63;;;;;;;22.98;41.06;100763.09;5052050;27;20079;-69
2022/06/21 10:28:26;;;;;;;1.58;1.45;;;;;;;22.66;41.92;100764.13;5007097;28;20434;-70
2022/06/21 10:31:13;;;;;;;2.33;1.55;;;;;;;22.34;42.45;100762.22;5032711;27;20350;-70
2022/06/21 10:34:09;;;;;;;2.88;1.38;;;;;;;22.41;41.72;100773.00;5044508;27;20033;-69
2022/06/21 10:37:03;;;;;;;1.40;1.25;;;;;;;22.60;40.96;100766.66;5043581;27;20437;-70
2022/06/21 10:40:05;;;;;;;2.58;1.25;;;;;;;23.05;40.11;100748.72;5054758;27;20119;-68
2022/06/21 10:42:49;;;;;;;2.50;1.35;;;;;;;23.15;40.24;100755.31;5075793;27;20480;-70
2022/06/21 10:45:39;;;;;;;1.52;1.40;;;;;;;23.21;40.49;100750.06;5074814;27;20152;-70
2022/06/21 10:48:23;;;;;;;1.55;1.40;;;;;;;22.89;41.21;100742.00;5076609;27;20283;-69
2022/06/21 10:51:10;;;;;;;1.73;1.35;;;;;;;22.77;40.25;100740.00;5055307;27;20047;-68
2022/06/21 10:53:57;;;;;;;1.17;1.17;;;;;;;23.34;40.90;100739.16;5018081;27;20357;-69
2022/06/21 11:02:56;;;;;;;2.65;1.60;;;;;;;23.14;40.11;100731.22;5018303;27;21052;-70
2022/06/21 11:05:43;;;;;;;4.13;1.35;;;;;;;22.59;41.85;100732.63;5010315;27;20454;-68
2022/06/21 11:08:27;;;;;;;1.70;1.50;;;;;;;22.25;42.58;100731.13;5039887;27;20016;-69
2022/06/21 11:11:00;;;;;;;1.98;1.50;;;;;;;22.24;41.06;100733.00;5018211;27;20672;-69
2022/06/21 11:13:36;;;;;;;1.50;1.40;;;;;;;22.18;42.09;100733.03;5001767;27;20278;-69
2022/06/21 11:16:23;;;;;;;1.55;1.40;;;;;;;22.38;43.29;100732.94;5018815;27;20124;-69
2022/06/21 11:18:57;;;;;;;2.88;1.60;;;;;;;22.32;42.14;100739.19;5014994;27;21028;-70
2022/06/21 11:21:25;;;;;;;;;;;;;;;22.35;42.32;100731.53;5016233;27;20023;-68
2022/06/21 11:24:15;;;;;;;3.15;1.45;;;;;;;22.27;44.19;100708.31;5050160;27;20000;-69
2022/06/21 11:26:47;;;;;;;2.80;1.45;;;;;;;23.22;44.73;100687.75;5034118;27;20762;-70
2022/06/21 11:29:30;;;;;;;4.65;1.40;;;;;;;24.78;39.94;100715.44;5034542;27;20029;-69
2022/06/21 11:32:27;;;;;;;1.83;1.55;;;;;;;25.05;37.41;100706.88;5034418;27;20368;-69
2022/06/21 11:35:31;;;;;;;3.95;1.60;;;;;;;25.79;38.16;100704.50;5049153;27;20549;-70
2022/06/21 11:38:19;;;;;;;1.25;1.20;;;;;;;25.79;38.64;100709.94;4967291;27;20039;-70
2022/06/21 11:47:54;;;;;;;1.50;1.40;;;;;;;26.10;36.85;100734.16;5053726;27;20024;-69
2022/06/21 11:50:20;;;;;;;1.40;1.30;;;;;;;25.65;35.31;100741.03;5036076;27;20016;-68
2022/06/21 11:53:00;;;;;;;1.48;1.30;;;;;;;26.54;34.21;100726.31;5053218;27;20835;-70
2022/06/21 11:55:29;;;;;;;1.48;1.38;;;;;;;26.99;34.88;100736.34;5034382;27;20020;-69
2022/06/21 11:58:09;;;;;;;1.95;1.13;;;;;;;26.84;33.15;100736.09;5052327;27;20138;-69
2022/06/21 12:00:42;;;;;;;1.60;1.40;;;;;;;26.71;32.55;100727.19;5016797;27;20494;-69
2022/06/21 12:03:11;;;;;;;2.25;1.20;;;;;;;27.01;33.09;100726.03;5015100;27;20016;-70
2022/06/21 12:05:56;;;;;;;1.42;1.08;;;;;;;27.21;31.76;100713.84;4979637;27;20442;-70
2022/06/21 12:08:21;;;;;;;1.30;1.20;;;;;;;27.78;30.95;100707.34;4998682;27;20031;-70
2022/06/21 12:11:29;;;;;;;1.90;1.40;;;;;;;26.76;34.55;100706.63;5007762;28;20021;-70
2022/06/21 12:14:15;;;;;;;1.20;1.10;;;;;;;27.12;32.77;100688.16;4922655;28;20337;-70
2022/06/21 12:16:45;;;;;;;1.30;1.20;;;;;;;28.54;32.73;100692.94;4938856;28;20039;-70
2022/06/21 12:19:13;;;;;;;1.35;1.25;;;;;;;28.76;31.63;100687.41;5013420;27;20137;-70
2022/06/21 12:21:41;;;;;;;2.47;1.30;;;;;;;28.80;30.10;100678.75;5046587;27;20412;-69
2022/06/21 12:24:10;;;;;;;1.55;1.17;;;;;;;28.12;31.24;100680.00;5034851;27;20107;-70
2022/06/21 12:26:40;;;;;;;1.10;1.10;;;;;;;28.42;32.95;100671.31;5040293;27;20008;-70
2022/06/21 12:29:07;;;;;;;1.30;1.17;;;;;;;27.85;30.70;100669.06;5016992;27;20220;-70